sensor_id;sensor_type;location;lat;lon;timestamp;P1;durP1;ratioP1;P2;durP2;ratioP2
64651;SDS011;51062;45.120;37.660;2023-11-18T00:05:08;502.55;;;449.30;;
64651;SDS011;51062;45.120;37.660;2023-11-18T00:07:34;780.17;;;697.08;;
64651;SDS011;51062;45.120;37.660;2023-11-18T00:10:00;706.85;;;633.33;;
64651;SDS011;51062;45.120;37.660;2023-11-18T00:12:26;615.33;;;553.38;;
64651;SDS011;51062;45.120;37.660;2023-11-18T00:14:52;718.47;;;642.97;;
64651;SDS011;51062;45.120;37.660;2023-11-18T00:19:46;535.00;;;401.55;;
64651;SDS011;51062;45.120;37.660;2023-11-18T00:22:12;448.50;;;309.50;;
64651;SDS011;51062;45.120;37.660;2023-11-18T00:27:04;420.10;;;374.30;;
64651;SDS011;51062;45.120;37.660;2023-11-18T00:29:32;598.25;;;536.90;;
64651;SDS011;51062;45.120;37.660;2023-11-18T00:31:59;729.80;;;647.20;;
64651;SDS011;51062;45.120;37.660;2023-11-18T00:36:52;860.13;;;700.07;;
64651;SDS011;51062;45.120;37.660;2023-11-18T00:41:46;1048.40;;;766.25;;
64651;SDS011;51062;45.120;37.660;2023-11-18T00:44:12;1335.78;;;805.50;;
64651;SDS011;51062;45.120;37.660;2023-11-18T00:46:39;1300.75;;;804.83;;
64651;SDS011;51062;45.120;37.660;2023-11-18T00:49:05;1356.90;;;803.08;;
64651;SDS011;51062;45.120;37.660;2023-11-18T00:51:31;722.08;;;601.03;;
64651;SDS011;51062;45.120;37.660;2023-11-18T00:53:57;953.75;;;714.35;;
64651;SDS011;51062;45.120;37.660;2023-11-18T00:56:26;804.23;;;592.30;;
64651;SDS011;51062;45.120;37.660;2023-11-18T00:58:53;701.03;;;626.88;;
64651;SDS011;51062;45.120;37.660;2023-11-18T01:18:23;497.00;;;444.25;;
64651;SDS011;51062;45.120;37.660;2023-11-18T01:20:49;412.10;;;304.40;;
64651;SDS011;51062;45.120;37.660;2023-11-18T02:24:29;482.67;;;431.33;;
64651;SDS011;51062;45.120;37.660;2023-11-18T02:44:34;538.60;;;464.10;;
64651;SDS011;51062;45.120;37.660;2023-11-18T02:47:01;471.70;;;379.15;;
64651;SDS011;51062;45.120;37.660;2023-11-18T02:54:23;542.85;;;469.95;;
64651;SDS011;51062;45.120;37.660;2023-11-18T03:01:44;877.92;;;728.05;;
64651;SDS011;51062;45.120;37.660;2023-11-18T14:46:53;479.45;;;392.85;;
64651;SDS011;51062;45.120;37.660;2023-11-18T14:51:46;1714.07;;;999.90;;
64651;SDS011;51062;45.120;37.660;2023-11-18T14:54:12;1771.53;;;999.90;;
64651;SDS011;51062;45.120;37.660;2023-11-18T14:56:38;1662.95;;;999.90;;
64651;SDS011;51062;45.120;37.660;2023-11-18T14:59:04;1587.15;;;999.90;;
64651;SDS011;51062;45.120;37.660;2023-11-18T15:01:31;1702.30;;;999.90;;
64651;SDS011;51062;45.120;37.660;2023-11-18T15:03:57;1676.93;;;999.90;;
64651;SDS011;51062;45.120;37.660;2023-11-18T15:06:26;1646.47;;;999.90;;
64651;SDS011;51062;45.120;37.660;2023-11-18T15:08:52;1610.25;;;999.90;;
64651;SDS011;51062;45.120;37.660;2023-11-18T15:11:22;1605.72;;;999.90;;
64651;SDS011;51062;45.120;37.660;2023-11-18T15:13:50;1643.07;;;999.90;;
64651;SDS011;51062;45.120;37.660;2023-11-18T15:16:18;1654.13;;;999.90;;
64651;SDS011;51062;45.120;37.660;2023-11-18T15:18:44;1615.70;;;999.90;;
64651;SDS011;51062;45.120;37.660;2023-11-18T15:21:15;1622.30;;;999.90;;
64651;SDS011;51062;45.120;37.660;2023-11-18T15:23:41;1613.40;;;999.90;;
64651;SDS011;51062;45.120;37.660;2023-11-18T15:26:07;1611.43;;;999.90;;
64651;SDS011;51062;45.120;37.660;2023-11-18T15:28:34;1588.72;;;999.90;;
64651;SDS011;51062;45.120;37.660;2023-11-18T15:31:00;1615.47;;;999.90;;
64651;SDS011;51062;45.120;37.660;2023-11-18T15:33:28;1615.03;;;999.90;;
64651;SDS011;51062;45.120;37.660;2023-11-18T15:35:55;1631.88;;;999.90;;
64651;SDS011;51062;45.120;37.660;2023-11-18T15:38:21;1639.05;;;999.90;;
64651;SDS011;51062;45.120;37.660;2023-11-18T15:40:47;1713.97;;;999.90;;
64651;SDS011;51062;45.120;37.660;2023-11-18T15:43:17;1728.07;;;999.90;;
64651;SDS011;51062;45.120;37.660;2023-11-18T15:45:43;1771.07;;;999.90;;
64651;SDS011;51062;45.120;37.660;2023-11-18T15:48:10;1740.72;;;999.90;;
64651;SDS011;51062;45.120;37.660;2023-11-18T15:50:36;1707.82;;;999.90;;
64651;SDS011;51062;45.120;37.660;2023-11-18T15:53:05;1700.63;;;999.90;;
64651;SDS011;51062;45.120;37.660;2023-11-18T15:55:32;1666.07;;;999.90;;
64651;SDS011;51062;45.120;37.660;2023-11-18T15:57:58;1675.55;;;999.90;;
64651;SDS011;51062;45.120;37.660;2023-11-18T16:00:25;1702.60;;;999.90;;
64651;SDS011;51062;45.120;37.660;2023-11-18T16:02:56;1653.97;;;999.90;;
64651;SDS011;51062;45.120;37.660;2023-11-18T16:05:24;1721.72;;;999.90;;
64651;SDS011;51062;45.120;37.660;2023-11-18T16:07:52;1713.78;;;999.90;;
64651;SDS011;51062;45.120;37.660;2023-11-18T16:10:20;1627.10;;;999.90;;
64651;SDS011;51062;45.120;37.660;2023-11-18T16:12:47;1547.70;;;999.90;;
64651;SDS011;51062;45.120;37.660;2023-11-18T16:15:16;1697.72;;;999.90;;
64651;SDS011;51062;45.120;37.660;2023-11-18T16:17:45;1740.50;;;999.90;;
64651;SDS011;51062;45.120;37.660;2023-11-18T16:20:18;1720.80;;;999.90;;
64651;SDS011;51062;45.120;37.660;2023-11-18T16:22:47;1694.43;;;999.90;;
64651;SDS011;51062;45.120;37.660;2023-11-18T16:25:18;1785.57;;;999.90;;
64651;SDS011;51062;45.120;37.660;2023-11-18T16:27:51;1728.95;;;999.90;;
64651;SDS011;51062;45.120;37.660;2023-11-18T16:30:19;1574.50;;;999.90;;
64651;SDS011;51062;45.120;37.660;2023-11-18T16:32:53;1707.28;;;999.90;;
64651;SDS011;51062;45.120;37.660;2023-11-18T16:35:20;1666.20;;;935.25;;
64651;SDS011;51062;45.120;37.660;2023-11-18T16:37:47;1588.20;;;797.20;;
64651;SDS011;51062;45.120;37.660;2023-11-18T16:40:14;1736.18;;;941.95;;
64651;SDS011;51062;45.120;37.660;2023-11-18T16:42:42;1762.32;;;999.90;;
64651;SDS011;51062;45.120;37.660;2023-11-18T16:45:12;1651.63;;;841.58;;
64651;SDS011;51062;45.120;37.660;2023-11-18T16:47:39;1757.63;;;992.33;;
64651;SDS011;51062;45.120;37.660;2023-11-18T16:50:07;1646.60;;;899.97;;
64651;SDS011;51062;45.120;37.660;2023-11-18T16:52:36;1562.35;;;793.70;;
64651;SDS011;51062;45.120;37.660;2023-11-18T16:55:06;1512.07;;;758.75;;
64651;SDS011;51062;45.120;37.660;2023-11-18T16:57:34;1396.00;;;683.20;;
64651;SDS011;51062;45.120;37.660;2023-11-18T17:00:01;1506.38;;;767.67;;
64651;SDS011;51062;45.120;37.660;2023-11-18T17:02:33;1441.32;;;714.65;;
64651;SDS011;51062;45.120;37.660;2023-11-18T17:04:59;1741.18;;;999.90;;
64651;SDS011;51062;45.120;37.660;2023-11-18T17:07:25;1682.78;;;900.90;;
64651;SDS011;51062;45.120;37.660;2023-11-18T17:09:52;1722.32;;;999.90;;
64651;SDS011;51062;45.120;37.660;2023-11-18T17:12:18;1719.80;;;999.90;;
64651;SDS011;51062;45.120;37.660;2023-11-18T17:14:44;1742.70;;;999.90;;
64651;SDS011;51062;45.120;37.660;2023-11-18T17:17:10;1746.13;;;999.90;;
64651;SDS011;51062;45.120;37.660;2023-11-18T17:19:37;1755.60;;;999.90;;
64651;SDS011;51062;45.120;37.660;2023-11-18T17:22:03;1341.80;;;643.97;;
64651;SDS011;51062;45.120;37.660;2023-11-18T17:24:31;1229.70;;;552.50;;
64651;SDS011;51062;45.120;37.660;2023-11-18T17:26:57;795.78;;;175.50;;
64651;SDS011;51062;45.120;37.660;2023-11-18T17:29:24;735.90;;;102.35;;
64651;SDS011;51062;45.120;37.660;2023-11-18T17:32:10;735.50;;;99.78;;
64651;SDS011;51062;45.120;37.660;2023-11-18T17:34:36;725.33;;;84.80;;
64651;SDS011;51062;45.120;37.660;2023-11-18T17:37:03;723.80;;;79.10;;
64651;SDS011;51062;45.120;37.660;2023-11-18T17:39:29;633.55;;;73.50;;
64651;SDS011;51062;45.120;37.660;2023-11-18T17:41:55;738.75;;;109.43;;
64651;SDS011;51062;45.120;37.660;2023-11-18T17:49:15;1482.90;;;999.90;;
64651;SDS011;51062;45.120;37.660;2023-11-18T17:51:41;1469.53;;;999.90;;
64651;SDS011;51062;45.120;37.660;2023-11-18T17:54:07;1503.35;;;999.90;;
64651;SDS011;51062;45.120;37.660;2023-11-18T17:56:34;1567.25;;;999.90;;
64651;SDS011;51062;45.120;37.660;2023-11-18T17:59:00;1578.03;;;999.90;;
64651;SDS011;51062;45.120;37.660;2023-11-18T18:01:26;1560.97;;;999.90;;
64651;SDS011;51062;45.120;37.660;2023-11-18T18:03:52;1550.80;;;999.90;;
64651;SDS011;51062;45.120;37.660;2023-11-18T18:06:18;1517.53;;;999.90;;
64651;SDS011;51062;45.120;37.660;2023-11-18T18:08:45;1536.10;;;999.90;;
64651;SDS011;51062;45.120;37.660;2023-11-18T18:11:11;1582.72;;;999.90;;
64651;SDS011;51062;45.120;37.660;2023-11-18T18:13:38;1575.15;;;999.90;;
64651;SDS011;51062;45.120;37.660;2023-11-18T18:16:05;1549.10;;;999.90;;
